SFC weather

Santa Fe Airport
Caborca, Sonora, Mexico

Public forecast

Using degrees Celsius for public forecast. Weather courtesy of forecast.io.

Closest aviation weather report (METAR) to Santa Fe Airport

Closest report is (Old) Puerto PeƱasco Airport, 76.1 nm (140.9 km) WNW. Retrieved UTC (0 seconds ago):

Closest aviation forecast (TAF) to Santa Fe Airport

Closest forecast is Nogales International Airport, 86.8 nm (160.7 km) ENE. Retrieved 2020/06/02 12:24 UTC (0 seconds ago):

TAF KOLS 021122Z 0212/0312 VRB03KT P6SM FEW100 FM022000 25008KT P6SM SCT100 BKN180 FM030300 VRB03KT P6SM FEW120 SCT200